Time;durP1;ratioP1;P1;durP2;ratioP2;P2;SDS_P1;SDS_P2;PMS_P1;PMS_P2;Temp;Humidity;BMP_temperature;BMP_pressure;BME280_temperature;BME280_humidity;BME280_pressure;Samples;Min_cycle;Max_cycle;Signal;HPM_P1;HPM_P2
2022/10/18 00:01:13;;;;;;;12.70;1.40;;;9.80;99.90;;;;;;4960729;28;20023;-94
2022/10/18 00:03:39;;;;;;;14.50;1.60;;;9.80;99.90;;;;;;4965222;28;20029;-92
2022/10/18 00:06:07;;;;;;;14.23;1.42;;;9.80;99.90;;;;;;4969705;28;20049;-90
2022/10/18 00:08:34;;;;;;;13.38;1.40;;;9.70;99.90;;;;;;4959690;28;20034;-95
2022/10/18 00:11:00;;;;;;;12.05;1.70;;;9.70;99.90;;;;;;4946980;29;20130;-94
2022/10/18 00:13:26;;;;;;;6.80;1.30;;;9.60;99.90;;;;;;4947379;29;20053;-95
2022/10/18 00:15:54;;;;;;;8.23;1.30;;;9.60;99.90;;;;;;4951598;28;20047;-94
2022/10/18 00:18:21;;;;;;;9.57;1.92;;;9.60;99.90;;;;;;4959995;28;20502;-95
2022/10/18 00:21:08;;;;;;;14.73;1.50;;;9.60;99.90;;;;;;4959911;28;20031;-95
2022/10/18 00:23:34;;;;;;;11.35;2.03;;;9.60;99.90;;;;;;4959843;28;20110;-96
2022/10/18 00:26:01;;;;;;;14.63;2.65;;;9.60;99.90;;;;;;4961201;28;20090;-94
2022/10/18 00:28:27;;;;;;;11.27;1.17;;;9.60;99.90;;;;;;4959853;28;20624;-95
2022/10/18 00:30:52;;;;;;;9.65;1.80;;;9.50;99.90;;;;;;4959915;28;20034;-94
2022/10/18 00:33:18;;;;;;;12.80;1.42;;;9.50;99.90;;;;;;4960528;28;20039;-93
2022/10/18 00:35:44;;;;;;;18.33;2.25;;;9.50;99.90;;;;;;4960369;28;20034;-95
2022/10/18 00:38:09;;;;;;;14.85;1.70;;;9.50;99.90;;;;;;4959461;28;20183;-94
2022/10/18 00:40:35;;;;;;;16.75;1.40;;;9.50;99.90;;;;;;4959814;28;20038;-95
2022/10/18 00:43:00;;;;;;;15.25;1.55;;;9.50;99.90;;;;;;4959752;28;20038;-93
2022/10/18 00:45:26;;;;;;;8.95;1.38;;;9.50;99.90;;;;;;4961125;28;20134;-95
2022/10/18 00:47:58;;;;;;;15.00;1.77;;;9.50;99.90;;;;;;4961360;28;20026;-95
2022/10/18 00:50:25;;;;;;;12.65;2.35;;;9.40;99.90;;;;;;4967106;28;20035;-96
2022/10/18 00:52:57;;;;;;;10.40;1.23;;;9.40;99.90;;;;;;4960321;28;20077;-94
2022/10/18 00:55:24;;;;;;;7.32;1.08;;;9.40;99.90;;;;;;4959526;28;20073;-94
2022/10/18 00:57:50;;;;;;;13.20;1.60;;;9.40;99.90;;;;;;4960038;28;20023;-95
2022/10/18 01:00:16;;;;;;;4.80;1.60;;;9.40;99.90;;;;;;4960416;28;20097;-93
2022/10/18 01:02:44;;;;;;;8.90;1.52;;;9.40;99.90;;;;;;4960967;28;20461;-94
2022/10/18 01:05:12;;;;;;;9.27;1.23;;;9.40;99.90;;;;;;4966879;28;20033;-94
2022/10/18 01:08:03;;;;;;;32.25;4.72;;;9.40;99.90;;;;;;4972589;28;20026;-93
2022/10/18 01:10:44;;;;;;;19.00;1.80;;;9.40;99.90;;;;;;4973280;28;20052;-94
2022/10/18 01:13:30;;;;;;;7.72;1.13;;;9.30;99.90;;;;;;4974287;28;20035;-94
2022/10/18 01:16:29;;;;;;;14.77;1.67;;;9.40;99.90;;;;;;4979023;28;20042;-95
2022/10/18 01:19:10;;;;;;;13.10;1.50;;;9.30;99.90;;;;;;4966020;28;20019;-95
2022/10/18 01:21:43;;;;;;;;;;;9.30;99.90;;;;;;4975797;28;20117;-95
2022/10/18 01:24:11;;;;;;;9.13;1.10;;;9.20;99.90;;;;;;4963059;28;19913;-94
2022/10/18 01:27:08;;;;;;;10.38;1.10;;;9.10;99.90;;;;;;4979561;28;20015;-91
2022/10/18 01:29:52;;;;;;;7.95;1.50;;;9.10;99.90;;;;;;4970945;28;20043;-96
2022/10/18 01:32:27;;;;;;;13.77;2.85;;;9.10;99.90;;;;;;4968511;28;20043;-94
2022/10/18 01:35:00;;;;;;;11.65;1.30;;;9.20;99.90;;;;;;4961639;28;20081;-94
2022/10/18 01:37:29;;;;;;;10.23;1.35;;;9.20;99.90;;;;;;4960620;28;20031;-95
2022/10/18 01:39:57;;;;;;;10.15;1.25;;;9.30;99.90;;;;;;4959322;28;20029;-95
2022/10/18 01:42:24;;;;;;;13.65;1.58;;;9.20;99.90;;;;;;4953864;29;20039;-92
2022/10/18 01:44:51;;;;;;;7.50;1.15;;;9.20;99.90;;;;;;4954364;29;20057;-95
2022/10/18 01:47:19;;;;;;;13.25;2.10;;;9.20;99.90;;;;;;4955608;28;20027;-94
2022/10/18 01:49:44;;;;;;;9.80;2.28;;;9.20;99.90;;;;;;4955596;28;20046;-94
2022/10/18 01:52:14;;;;;;;10.25;1.52;;;9.10;99.90;;;;;;4960433;29;20098;-95
2022/10/18 01:54:47;;;;;;;5.28;0.98;;;9.00;99.90;;;;;;4962731;28;20019;-94
2022/10/18 01:57:39;;;;;;;9.25;1.63;;;8.90;99.90;;;;;;4975462;28;20094;-94
2022/10/18 02:00:13;;;;;;;10.70;1.10;;;8.80;99.90;;;;;;4949419;29;20035;-94
2022/10/18 02:02:47;;;;;;;9.38;1.38;;;8.80;99.90;;;;;;4966675;28;20018;-94
2022/10/18 02:05:22;;;;;;;5.50;1.20;;;8.70;99.90;;;;;;4964739;28;20019;-96
2022/10/18 02:08:20;;;;;;;7.03;1.40;;;8.60;99.90;;;;;;4965191;28;20055;-94
2022/10/18 02:10:49;;;;;;;9.98;1.38;;;8.60;99.90;;;;;;4954879;28;20059;-93
2022/10/18 02:13:20;;;;;;;6.38;1.30;;;8.50;99.90;;;;;;4956638;28;20019;-93
2022/10/18 02:15:49;;;;;;;13.60;1.48;;;8.50;99.90;;;;;;4945435;28;20074;-96
2022/10/18 02:18:20;;;;;;;5.60;0.93;;;8.40;99.90;;;;;;4963938;28;20031;-94
2022/10/18 02:20:47;;;;;;;8.93;1.30;;;8.30;99.90;;;;;;4956603;28;20480;-95
2022/10/18 02:23:14;;;;;;;7.43;1.33;;;8.30;99.90;;;;;;4956492;28;20045;-95
2022/10/18 02:25:40;;;;;;;9.70;1.77;;;8.30;99.90;;;;;;4956923;28;20115;-95
2022/10/18 02:28:09;;;;;;;10.25;1.60;;;8.20;99.90;;;;;;4956678;28;20030;-94
2022/10/18 02:31:12;;;;;;;9.52;1.25;;;8.20;99.90;;;;;;4956820;28;20037;-94
2022/10/18 02:33:57;;;;;;;11.73;1.50;;;8.10;99.90;;;;;;4941861;29;20103;-95
2022/10/18 02:36:43;;;;;;;12.60;2.13;;;8.10;99.90;;;;;;4918031;29;20027;-95
2022/10/18 02:39:38;;;;;;;10.98;1.40;;;8.00;99.90;;;;;;4918268;29;20114;-94
2022/10/18 02:42:08;;;;;;;11.27;1.27;;;7.90;99.90;;;;;;4916404;29;20039;-95
2022/10/18 02:44:34;;;;;;;22.00;2.45;;;7.90;99.90;;;;;;4919962;29;20023;-95
2022/10/18 02:47:03;;;;;;;10.55;1.40;;;7.90;99.90;;;;;;4923360;29;20038;-94
2022/10/18 02:49:29;;;;;;;7.43;1.35;;;7.90;99.90;;;;;;4920780;29;20023;-94
2022/10/18 02:51:55;;;;;;;15.98;1.63;;;7.80;99.90;;;;;;4925964;29;20039;-94
2022/10/18 02:54:21;;;;;;;6.38;1.30;;;7.80;99.90;;;;;;4931944;29;20134;-95
2022/10/18 02:56:47;;;;;;;9.48;1.45;;;7.70;99.90;;;;;;4937867;29;20146;-95
2022/10/18 02:59:13;;;;;;;8.15;1.98;;;7.70;99.90;;;;;;4953565;29;20042;-94
2022/10/18 03:01:38;;;;;;;8.23;1.10;;;7.60;99.90;;;;;;4940468;29;20136;-94
2022/10/18 03:04:04;;;;;;;7.05;1.13;;;7.50;99.90;;;;;;4936913;29;20109;-95
2022/10/18 03:06:31;;;;;;;7.07;1.10;;;7.50;99.90;;;;;;4936852;29;20586;-95
2022/10/18 03:08:56;;;;;;;8.07;1.20;;;7.60;99.90;;;;;;4937030;29;20546;-96
2022/10/18 03:11:23;;;;;;;9.98;1.60;;;7.50;99.90;;;;;;4937070;29;20044;-94
2022/10/18 03:13:51;;;;;;;8.90;1.45;;;7.50;99.90;;;;;;4937002;29;20051;-93
2022/10/18 03:16:16;;;;;;;12.60;2.08;;;7.60;99.90;;;;;;4937481;29;20031;-95
2022/10/18 03:18:42;;;;;;;10.80;1.92;;;7.60;99.90;;;;;;4937512;29;20023;-95
2022/10/18 03:21:09;;;;;;;10.13;1.13;;;7.50;99.90;;;;;;4936597;29;20035;-94
2022/10/18 03:23:35;;;;;;;12.15;1.40;;;7.40;99.90;;;;;;4937104;29;20066;-95
2022/10/18 03:26:01;;;;;;;9.77;1.70;;;7.30;99.90;;;;;;4936564;29;20031;-94
2022/10/18 03:28:27;;;;;;;9.48;1.25;;;7.30;99.90;;;;;;4936220;29;20114;-95
2022/10/18 03:30:52;;;;;;;3.90;0.90;;;7.30;99.90;;;;;;4936796;29;20493;-94
2022/10/18 03:33:18;;;;;;;8.25;1.13;;;7.20;99.90;;;;;;4944905;28;20049;-94
2022/10/18 03:35:44;;;;;;;8.85;1.52;;;7.20;99.90;;;;;;4954679;28;20118;-95
2022/10/18 03:38:10;;;;;;;10.18;1.02;;;7.20;99.90;;;;;;4956001;28;20138;-94
2022/10/18 03:40:35;;;;;;;8.40;1.05;;;7.20;99.90;;;;;;4972796;28;20023;-94
2022/10/18 03:43:01;;;;;;;8.23;1.15;;;7.10;99.90;;;;;;4955439;28;20038;-93
2022/10/18 03:45:27;;;;;;;8.35;1.98;;;7.00;99.90;;;;;;4939297;28;20033;-95
2022/10/18 03:47:52;;;;;;;15.95;1.30;;;7.00;99.90;;;;;;4955508;28;20519;-94
2022/10/18 03:50:18;;;;;;;9.60;1.63;;;6.90;99.90;;;;;;4955554;28;20477;-95
2022/10/18 03:52:44;;;;;;;7.47;1.30;;;6.90;99.90;;;;;;4955612;28;20019;-94
2022/10/18 03:55:09;;;;;;;4.32;1.10;;;6.80;99.90;;;;;;4956239;28;20030;-93
2022/10/18 03:57:35;;;;;;;14.15;2.58;;;6.80;99.90;;;;;;4955557;28;20125;-94
2022/10/18 04:00:01;;;;;;;11.98;2.10;;;6.80;99.90;;;;;;4954084;28;20039;-96
2022/10/18 04:02:26;;;;;;;10.27;1.85;;;6.70;99.90;;;;;;4955476;28;20098;-95
2022/10/18 04:04:52;;;;;;;4.72;1.00;;;6.80;99.90;;;;;;4955273;28;20062;-95
2022/10/18 04:07:18;;;;;;;10.00;1.70;;;6.70;99.90;;;;;;4953726;28;20081;-95
2022/10/18 04:09:43;;;;;;;6.22;0.88;;;6.70;99.90;;;;;;4955681;28;20053;-94
2022/10/18 04:12:09;;;;;;;7.97;1.38;;;6.70;99.90;;;;;;4956977;28;20042;-94
2022/10/18 04:14:35;;;;;;;9.82;2.58;;;6.70;99.90;;;;;;4964170;28;20046;-94
2022/10/18 04:17:00;;;;;;;3.72;0.85;;;6.70;99.90;;;;;;4957001;29;20035;-95
2022/10/18 04:19:26;;;;;;;7.95;1.95;;;6.70;99.90;;;;;;4941803;29;20020;-95
2022/10/18 04:21:52;;;;;;;7.13;1.40;;;6.70;99.90;;;;;;4941712;29;20118;-95
2022/10/18 04:24:18;;;;;;;4.68;0.80;;;6.70;99.90;;;;;;4944568;29;20027;-96
2022/10/18 04:26:44;;;;;;;11.68;1.75;;;6.70;99.90;;;;;;4966505;29;20045;-95
2022/10/18 04:29:10;;;;;;;11.05;1.83;;;6.70;99.90;;;;;;4949225;29;20035;-94
2022/10/18 04:31:36;;;;;;;9.13;1.40;;;6.60;99.90;;;;;;4951163;29;20364;-94
2022/10/18 04:34:03;;;;;;;8.00;1.27;;;6.60;99.90;;;;;;4961529;29;20051;-93
2022/10/18 04:36:29;;;;;;;7.38;1.27;;;6.60;99.90;;;;;;4993129;28;20042;-93
2022/10/18 04:38:55;;;;;;;5.25;1.10;;;6.50;99.90;;;;;;4974831;29;20028;-95
2022/10/18 04:41:20;;;;;;;6.40;1.20;;;6.50;99.90;;;;;;4947041;29;20110;-93
2022/10/18 04:43:46;;;;;;;8.73;1.27;;;6.50;99.90;;;;;;4958980;28;20075;-93
2022/10/18 04:46:12;;;;;;;11.60;1.52;;;6.50;99.90;;;;;;4960974;29;20030;-90
2022/10/18 04:48:40;;;;;;;5.82;1.13;;;6.50;99.90;;;;;;4950940;29;20031;-93
2022/10/18 04:51:06;;;;;;;12.93;1.70;;;6.50;99.90;;;;;;4946391;29;20035;-94
2022/10/18 04:53:32;;;;;;;7.63;2.17;;;6.50;99.90;;;;;;4939593;29;20038;-96
2022/10/18 04:55:57;;;;;;;8.07;1.30;;;6.40;99.90;;;;;;4939056;29;20069;-94
2022/10/18 04:58:23;;;;;;;14.30;1.73;;;6.40;99.90;;;;;;4939031;29;20388;-96
2022/10/18 05:00:49;;;;;;;9.30;1.02;;;6.30;99.90;;;;;;4939889;29;20023;-91
2022/10/18 05:03:15;;;;;;;6.57;0.90;;;6.30;99.90;;;;;;4938947;29;20441;-93
2022/10/18 05:05:41;;;;;;;11.32;1.23;;;6.20;99.90;;;;;;4939587;29;20181;-92
2022/10/18 05:08:07;;;;;;;9.40;1.20;;;6.20;99.90;;;;;;4938401;29;20046;-93
2022/10/18 05:10:33;;;;;;;17.17;1.30;;;6.20;99.90;;;;;;4938570;29;20042;-94
2022/10/18 05:12:59;;;;;;;9.80;1.35;;;6.10;99.90;;;;;;4938909;29;20046;-94
2022/10/18 05:15:25;;;;;;;4.97;1.38;;;6.10;99.90;;;;;;4939480;29;20042;-96
2022/10/18 05:17:50;;;;;;;7.65;1.40;;;6.10;99.90;;;;;;4939796;29;20024;-94
2022/10/18 05:20:16;;;;;;;8.52;1.25;;;6.10;99.90;;;;;;4941431;29;20035;-93
2022/10/18 05:22:42;;;;;;;15.10;1.48;;;6.10;99.90;;;;;;4941403;29;20042;-94
2022/10/18 05:25:08;;;;;;;4.03;1.20;;;6.00;99.90;;;;;;4939214;29;20028;-94
2022/10/18 05:27:33;;;;;;;4.65;0.98;;;6.00;99.90;;;;;;4939398;29;20039;-94
2022/10/18 05:29:59;;;;;;;9.70;1.38;;;6.00;99.90;;;;;;4938612;29;20023;-93
2022/10/18 05:32:25;;;;;;;8.98;1.00;;;5.90;99.90;;;;;;4938597;29;20090;-94
2022/10/18 05:34:50;;;;;;;4.82;1.05;;;5.90;99.90;;;;;;4956326;29;20053;-94
2022/10/18 05:37:16;;;;;;;6.40;1.10;;;5.80;99.90;;;;;;4939055;29;20094;-94
2022/10/18 05:39:42;;;;;;;6.32;0.98;;;5.80;99.90;;;;;;4938064;29;20023;-94
2022/10/18 05:42:07;;;;;;;5.22;1.00;;;5.70;99.90;;;;;;4938224;29;20091;-95
2022/10/18 05:44:33;;;;;;;12.77;1.58;;;5.70;99.90;;;;;;4937899;29;20050;-93
2022/10/18 05:46:59;;;;;;;7.43;1.38;;;5.60;99.90;;;;;;4937777;29;20162;-93
2022/10/18 05:49:25;;;;;;;7.28;1.33;;;5.60;99.90;;;;;;4938294;29;20027;-93
2022/10/18 05:51:50;;;;;;;7.78;1.08;;;5.60;99.90;;;;;;4938256;29;20043;-94
2022/10/18 05:54:16;;;;;;;3.22;1.05;;;5.50;99.90;;;;;;4937642;29;20035;-91
2022/10/18 05:56:42;;;;;;;6.57;1.77;;;5.50;99.90;;;;;;4937848;29;20031;-93
2022/10/18 05:59:10;;;;;;;12.80;1.50;;;5.50;99.90;;;;;;4937936;29;20019;-94
2022/10/18 06:01:37;;;;;;;7.38;1.50;;;5.50;99.90;;;;;;4937945;29;20504;-93
2022/10/18 06:04:03;;;;;;;12.35;1.60;;;5.50;99.90;;;;;;4938451;29;20031;-94
2022/10/18 06:06:30;;;;;;;5.55;2.10;;;5.50;99.90;;;;;;4937676;29;20045;-91
2022/10/18 06:08:56;;;;;;;7.90;1.50;;;5.50;99.90;;;;;;4937899;29;20030;-92
2022/10/18 06:11:22;;;;;;;6.43;1.30;;;5.50;99.90;;;;;;4937588;29;20046;-92
2022/10/18 06:13:50;;;;;;;5.35;1.40;;;5.40;99.90;;;;;;4946573;28;20058;-93
2022/10/18 06:16:18;;;;;;;4.03;1.20;;;5.50;99.90;;;;;;4955731;28;20094;-93
2022/10/18 06:18:48;;;;;;;12.18;1.33;;;5.50;99.90;;;;;;4956340;28;20015;-93
2022/10/18 06:21:13;;;;;;;4.73;1.07;;;5.60;99.90;;;;;;4956206;28;20066;-93
2022/10/18 06:23:39;;;;;;;5.43;1.17;;;5.60;99.90;;;;;;4955165;28;20878;-92
2022/10/18 06:26:07;;;;;;;9.68;1.40;;;5.60;99.90;;;;;;4957819;28;20066;-92
2022/10/18 06:28:36;;;;;;;11.93;2.45;;;5.60;99.90;;;;;;4964170;28;20078;-89
2022/10/18 06:31:03;;;;;;;9.55;1.33;;;5.50;99.90;;;;;;4964545;28;20480;-94
2022/10/18 06:33:30;;;;;;;9.57;1.60;;;5.40;99.90;;;;;;4964338;28;20042;-94
2022/10/18 06:36:02;;;;;;;6.50;1.63;;;5.30;99.90;;;;;;4965279;28;20039;-96
2022/10/18 06:38:29;;;;;;;3.25;1.48;;;5.20;99.90;;;;;;4963505;28;20023;-95
2022/10/18 06:40:56;;;;;;;6.80;1.50;;;5.10;99.90;;;;;;4959819;28;20023;-94
2022/10/18 06:43:22;;;;;;;4.70;1.55;;;5.10;99.90;;;;;;4972052;28;20047;-96
2022/10/18 06:45:49;;;;;;;8.38;1.63;;;5.00;99.90;;;;;;4964103;28;20046;-94
2022/10/18 06:48:15;;;;;;;11.95;2.13;;;5.00;99.90;;;;;;4966406;28;20027;-95
2022/10/18 06:50:41;;;;;;;9.07;2.65;;;5.00;99.90;;;;;;4970962;28;20049;-95
2022/10/18 06:53:07;;;;;;;11.05;1.38;;;4.90;99.90;;;;;;4960598;28;20030;-95
2022/10/18 06:55:34;;;;;;;13.65;2.95;;;4.90;99.90;;;;;;4959914;28;20027;-95
2022/10/18 06:58:03;;;;;;;7.43;1.75;;;4.90;99.90;;;;;;4959548;28;20436;-93
2022/10/18 07:00:28;;;;;;;8.73;1.75;;;4.90;99.90;;;;;;4960515;28;20117;-96
2022/10/18 07:02:56;;;;;;;6.78;1.88;;;4.80;99.90;;;;;;4978004;28;20050;-94
2022/10/18 07:05:23;;;;;;;5.20;1.80;;;4.80;99.90;;;;;;4970157;28;20023;-96
2022/10/18 07:07:49;;;;;;;8.10;2.03;;;4.70;99.90;;;;;;4963771;28;20027;-96
2022/10/18 07:10:16;;;;;;;6.93;2.58;;;4.70;99.90;;;;;;4968758;28;20031;-91
2022/10/18 07:12:41;;;;;;;8.48;2.38;;;4.70;99.90;;;;;;4976187;28;20042;-90
2022/10/18 07:15:07;;;;;;;4.95;2.30;;;4.60;99.90;;;;;;4979066;28;20030;-93
2022/10/18 07:17:35;;;;;;;10.25;2.50;;;4.70;99.90;;;;;;4991292;28;20019;-94
2022/10/18 07:20:03;;;;;;;6.88;1.45;;;4.70;99.90;;;;;;4976517;28;20058;-90
2022/10/18 07:22:29;;;;;;;12.63;2.22;;;4.80;99.90;;;;;;4971861;28;20034;-94
2022/10/18 07:24:55;;;;;;;15.02;4.28;;;4.80;99.90;;;;;;4974144;28;20262;-95
2022/10/18 07:27:21;;;;;;;12.52;4.13;;;4.80;99.90;;;;;;4969323;28;20023;-96
2022/10/18 07:29:47;;;;;;;10.30;3.08;;;4.70;99.90;;;;;;4964816;28;20146;-95
2022/10/18 07:32:14;;;;;;;5.88;2.67;;;4.70;99.90;;;;;;4960278;28;20035;-96
2022/10/18 07:34:40;;;;;;;5.85;2.15;;;4.70;99.90;;;;;;4952756;29;20078;-95
2022/10/18 07:37:05;;;;;;;8.75;3.30;;;4.80;99.90;;;;;;4939265;29;20023;-94
2022/10/18 07:39:31;;;;;;;8.50;3.70;;;4.80;99.90;;;;;;4938131;29;20062;-95
2022/10/18 07:41:57;;;;;;;10.63;3.83;;;4.70;99.90;;;;;;4934037;29;20115;-95
2022/10/18 07:44:22;;;;;;;11.57;3.90;;;4.70;99.90;;;;;;4936693;29;20107;-95
2022/10/18 07:46:48;;;;;;;7.20;3.10;;;4.70;99.90;;;;;;4947237;28;20090;-94
2022/10/18 07:49:14;;;;;;;7.95;3.03;;;4.70;99.90;;;;;;4950851;29;20043;-94
2022/10/18 07:51:39;;;;;;;9.05;3.22;;;4.70;99.90;;;;;;4941071;29;20046;-95
2022/10/18 07:54:08;;;;;;;9.15;3.17;;;4.70;99.90;;;;;;4960158;28;20012;-93
2022/10/18 07:56:45;;;;;;;11.10;2.45;;;4.70;99.90;;;;;;4961362;28;20020;-92
2022/10/18 07:59:11;;;;;;;4.68;2.38;;;4.80;99.90;;;;;;4959293;28;20059;-93
2022/10/18 08:01:37;;;;;;;9.25;2.45;;;4.90;99.90;;;;;;4963963;28;20023;-93
2022/10/18 08:04:02;;;;;;;10.00;3.65;;;4.90;99.90;;;;;;4980200;28;20015;-92
2022/10/18 08:06:29;;;;;;;10.48;3.10;;;5.00;99.90;;;;;;4984545;28;20031;-91
2022/10/18 08:08:54;;;;;;;12.55;3.80;;;5.10;99.90;;;;;;4984380;28;20031;-91
2022/10/18 08:11:24;;;;;;;14.80;5.25;;;5.10;99.90;;;;;;4985309;28;20037;-91
2022/10/18 08:13:51;;;;;;;12.50;5.63;;;5.20;99.90;;;;;;4981845;28;20023;-89
2022/10/18 08:16:20;;;;;;;9.93;4.60;;;5.20;99.90;;;;;;4965569;28;20039;-93
2022/10/18 08:18:46;;;;;;;10.65;4.88;;;5.20;99.90;;;;;;4965541;28;20019;-92
2022/10/18 08:21:13;;;;;;;11.00;4.40;;;5.20;99.90;;;;;;4965393;28;20047;-93
2022/10/18 08:23:39;;;;;;;7.97;3.80;;;5.30;99.90;;;;;;4965326;28;20034;-93
2022/10/18 08:26:11;;;;;;;9.98;3.28;;;5.30;99.90;;;;;;4981841;28;20023;-94
2022/10/18 08:28:39;;;;;;;13.15;2.88;;;5.40;99.90;;;;;;4965544;28;20050;-91
2022/10/18 08:31:08;;;;;;;7.55;2.75;;;5.50;99.90;;;;;;4981344;28;20039;-91
2022/10/18 08:33:35;;;;;;;8.27;3.47;;;5.60;99.90;;;;;;4992743;28;20043;-92
2022/10/18 08:36:06;;;;;;;8.50;3.47;;;5.60;99.90;;;;;;5000944;28;20017;-90
2022/10/18 08:38:33;;;;;;;5.22;2.78;;;5.80;99.90;;;;;;4985263;28;20043;-91
2022/10/18 08:41:30;;;;;;;6.45;2.80;;;5.80;99.90;;;;;;4985108;28;20030;-92
2022/10/18 08:44:02;;;;;;;12.70;2.83;;;6.00;99.90;;;;;;4995694;28;20019;-91
2022/10/18 08:46:28;;;;;;;13.35;3.88;;;6.10;99.90;;;;;;4984616;28;20062;-92
2022/10/18 08:48:55;;;;;;;11.10;3.58;;;6.30;99.90;;;;;;4984143;28;20062;-91
2022/10/18 08:51:57;;;;;;;14.07;5.72;;;6.40;99.90;;;;;;4984567;28;20054;-90
2022/10/18 08:54:36;;;;;;;13.43;4.97;;;6.50;99.90;;;;;;4924812;29;20032;-89
2022/10/18 08:57:11;;;;;;;19.70;7.18;;;6.70;99.90;;;;;;4926256;29;20044;-92
2022/10/18 08:59:39;;;;;;;14.50;6.25;;;6.80;99.90;;;;;;4925214;29;20009;-93
2022/10/18 09:02:42;;;;;;;15.88;4.32;;;7.00;99.90;;;;;;4926851;29;20027;-94
2022/10/18 09:05:20;;;;;;;12.27;3.05;;;7.10;99.90;;;;;;4926036;29;20040;-92
2022/10/18 09:08:11;;;;;;;7.95;2.20;;;7.30;99.90;;;;;;4926001;29;20096;-95
2022/10/18 09:10:56;;;;;;;13.90;2.42;;;7.50;99.90;;;;;;4925525;29;20040;-92
2022/10/18 09:13:59;;;;;;;9.98;2.97;;;7.70;99.90;;;;;;4926157;29;20044;-93
2022/10/18 09:16:55;;;;;;;7.68;2.28;;;7.90;99.90;;;;;;4941932;29;20024;-92
2022/10/18 09:19:30;;;;;;;14.68;3.25;;;8.10;99.90;;;;;;4925872;29;20028;-91
2022/10/18 09:22:04;;;;;;;12.65;3.10;;;8.30;99.90;;;;;;4941801;29;20059;-91
2022/10/18 09:24:39;;;;;;;13.50;2.92;;;8.60;99.90;;;;;;4925646;29;20080;-93
2022/10/18 09:27:15;;;;;;;12.90;2.80;;;8.90;99.90;;;;;;4925961;29;20016;-92
2022/10/18 09:29:49;;;;;;;16.20;2.47;;;9.20;99.90;;;;;;4925715;29;20027;-93
2022/10/18 09:32:23;;;;;;;9.98;2.53;;;9.50;99.90;;;;;;4925683;29;20047;-91
2022/10/18 09:35:18;;;;;;;7.95;1.83;;;9.90;99.90;;;;;;4941708;29;20101;-93
2022/10/18 09:37:44;;;;;;;9.65;2.13;;;10.40;99.90;;;;;;4933299;29;20048;-94
2022/10/18 09:40:42;;;;;;;12.45;1.70;;;10.90;99.90;;;;;;4909057;29;20060;-91
2022/10/18 09:43:22;;;;;;;14.63;2.33;;;11.30;99.90;;;;;;4913346;29;20020;-93
2022/10/18 09:45:49;;;;;;;7.70;1.40;;;11.80;99.90;;;;;;4941272;29;20024;-92
2022/10/18 09:48:19;;;;;;;12.85;2.10;;;12.20;99.90;;;;;;4941412;29;20020;-92
2022/10/18 09:51:02;;;;;;;10.02;2.13;;;12.60;99.90;;;;;;4925087;29;20070;-91
2022/10/18 09:54:03;;;;;;;13.23;1.92;;;13.10;99.90;;;;;;4941118;29;20051;-92
2022/10/18 09:56:29;;;;;;;;;;;13.60;99.90;;;;;;4941561;29;20063;-91
2022/10/18 09:58:55;;;;;;;10.55;1.50;;;14.10;99.90;;;;;;4941282;29;19899;-94
2022/10/18 10:01:27;;;;;;;8.73;2.00;;;14.50;99.90;;;;;;4922464;29;20012;-92
2022/10/18 10:03:53;;;;;;;8.10;1.80;;;14.70;99.90;;;;;;4926765;28;20060;-95
2022/10/18 10:06:30;;;;;;;7.63;1.80;;;15.00;99.90;;;;;;4925313;28;20028;-90
2022/10/18 10:09:00;;;;;;;12.55;2.15;;;15.20;99.90;;;;;;4941152;28;20016;-90
2022/10/18 10:11:32;;;;;;;9.68;2.33;;;15.50;99.90;;;;;;4921534;29;20032;-90
2022/10/18 10:14:16;;;;;;;12.20;2.72;;;15.80;99.90;;;;;;4923928;29;20049;-92
2022/10/18 10:16:55;;;;;;;13.77;3.45;;;16.10;99.90;;;;;;4924649;29;20028;-91
2022/10/18 10:19:36;;;;;;;6.88;1.50;;;16.30;99.90;;;;;;4923668;29;20028;-94
2022/10/18 10:22:09;;;;;;;8.63;1.67;;;16.50;99.90;;;;;;4924273;29;20043;-94
2022/10/18 10:24:45;;;;;;;9.45;1.65;;;16.80;99.90;;;;;;4924539;29;20024;-92
2022/10/18 10:27:39;;;;;;;7.72;1.58;;;17.00;99.90;;;;;;4924910;29;20051;-94
2022/10/18 10:30:19;;;;;;;8.68;1.60;;;17.40;99.90;;;;;;4972088;28;20036;-92
2022/10/18 10:32:49;;;;;;;7.15;1.35;;;17.60;99.90;;;;;;4984072;28;20094;-94
2022/10/18 10:35:40;;;;;;;8.77;1.40;;;17.80;99.60;;;;;;4982802;28;20090;-93
2022/10/18 10:38:06;;;;;;;5.93;1.58;;;18.10;98.20;;;;;;4982612;28;20038;-94
2022/10/18 10:40:51;;;;;;;9.85;1.40;;;18.30;96.90;;;;;;4999432;28;20057;-93
2022/10/18 10:43:28;;;;;;;9.48;1.48;;;18.60;95.30;;;;;;4999197;28;20027;-92
2022/10/18 10:46:31;;;;;;;6.28;1.42;;;18.80;94.10;;;;;;4968373;28;20046;-92
2022/10/18 10:48:59;;;;;;;9.30;1.88;;;19.00;93.40;;;;;;4968653;28;20059;-94
2022/10/18 10:51:39;;;;;;;12.23;2.65;;;19.40;92.60;;;;;;4981395;28;20084;-90
2022/10/18 10:54:14;;;;;;;16.27;1.70;;;19.60;90.40;;;;;;4998771;28;20023;-93
2022/10/18 10:57:26;;;;;;;6.55;1.42;;;19.50;90.10;;;;;;4982049;28;20034;-91
2022/10/18 11:00:34;;;;;;;7.55;1.10;;;19.60;89.40;;;;;;4988213;28;20070;-94
2022/10/18 11:03:17;;;;;;;6.20;1.50;;;19.90;88.10;;;;;;4998797;28;20019;-92
2022/10/18 11:05:52;;;;;;;9.10;1.45;;;19.90;86.50;;;;;;4980008;28;20038;-95
2022/10/18 11:08:25;;;;;;;10.23;1.52;;;19.90;84.70;;;;;;4998094;28;20019;-94
2022/10/18 11:11:15;;;;;;;13.63;2.10;;;19.90;84.30;;;;;;4980541;28;20023;-93
2022/10/18 11:14:07;;;;;;;6.68;1.63;;;20.00;82.60;;;;;;4980974;28;20027;-93
2022/10/18 11:16:41;;;;;;;7.25;1.40;;;19.90;81.80;;;;;;4992753;28;20027;-93
2022/10/18 11:19:30;;;;;;;7.57;2.33;;;20.00;81.10;;;;;;4965545;28;20008;-95
2022/10/18 11:21:57;;;;;;;14.45;2.33;;;20.30;80.70;;;;;;4974078;28;20014;-95
2022/10/18 11:24:23;;;;;;;10.20;3.33;;;20.50;80.30;;;;;;4981222;28;20026;-92
2022/10/18 11:26:58;;;;;;;14.18;3.70;;;20.70;78.70;;;;;;4985423;28;20015;-94
2022/10/18 11:29:39;;;;;;;14.07;3.35;;;20.70;77.30;;;;;;4985307;28;20027;-93
2022/10/18 11:32:29;;;;;;;10.32;3.10;;;20.90;76.60;;;;;;4980579;28;20035;-92
2022/10/18 11:35:27;;;;;;;12.55;3.65;;;21.30;75.50;;;;;;4966152;28;20054;-93
2022/10/18 11:38:21;;;;;;;5.72;2.90;;;21.50;74.30;;;;;;4973082;28;20015;-92
2022/10/18 11:41:03;;;;;;;9.35;2.95;;;21.80;73.70;;;;;;4985440;28;20026;-95
2022/10/18 11:43:29;;;;;;;12.82;3.30;;;22.10;72.60;;;;;;5001742;28;20022;-92
2022/10/18 11:46:29;;;;;;;13.98;3.85;;;22.30;71.90;;;;;;4984412;28;20034;-94
2022/10/18 11:49:19;;;;;;;13.00;4.28;;;22.50;70.10;;;;;;4984974;28;20031;-95
2022/10/18 11:52:05;;;;;;;12.70;4.38;;;22.50;68.80;;;;;;4985617;28;20053;-93
2022/10/18 11:55:20;;;;;;;10.35;3.67;;;22.70;68.60;;;;;;4985437;28;20074;-94
2022/10/18 11:57:48;;;;;;;8.20;2.97;;;22.90;67.20;;;;;;4974691;28;20046;-91
2022/10/18 12:00:53;;;;;;;7.07;2.60;;;22.90;66.90;;;;;;4993854;28;20032;-92
2022/10/18 12:04:07;;;;;;;11.88;3.28;;;23.10;66.70;;;;;;4966443;28;20020;-94
2022/10/18 12:07:01;;;;;;;13.27;4.45;;;23.50;66.10;;;;;;4966464;28;20048;-91
2022/10/18 12:13:20;;;;;;;8.15;3.75;;;23.50;63.30;;;;;;4932829;29;20035;-92
2022/10/18 12:15:58;;;;;;;10.10;3.60;;;23.50;63.10;;;;;;4927633;29;20052;-91
2022/10/18 12:18:29;;;;;;;;;;;23.40;62.80;;;;;;5049949;23;20058;-91
2022/10/18 12:21:04;;;;;;;8.27;2.80;;;23.50;62.80;;;;;;4966355;28;19898;-94
2022/10/18 12:23:52;;;;;;;11.45;3.15;;;23.70;62.40;;;;;;4966253;28;20043;-91
2022/10/18 12:26:22;;;;;;;8.35;3.30;;;23.90;61.00;;;;;;4966238;28;20015;-89
2022/10/18 12:29:19;;;;;;;10.30;3.87;;;23.90;60.50;;;;;;4965775;28;20019;-93
2022/10/18 12:32:02;;;;;;;9.13;3.17;;;23.80;60.20;;;;;;4965882;28;20123;-93
2022/10/18 12:34:42;;;;;;;7.80;2.60;;;23.90;60.70;;;;;;4964976;29;20034;-90
2022/10/18 12:37:43;;;;;;;6.38;2.67;;;24.00;59.70;;;;;;4966020;28;20012;-90
2022/10/18 12:40:33;;;;;;;9.48;2.78;;;24.10;59.30;;;;;;4965004;28;20023;-93
2022/10/18 12:43:00;;;;;;;13.02;3.45;;;24.20;59.00;;;;;;4981568;28;20029;-92
2022/10/18 12:45:34;;;;;;;8.35;3.05;;;24.10;58.50;;;;;;4981999;28;20015;-91
2022/10/18 12:48:29;;;;;;;8.85;2.75;;;24.10;58.50;;;;;;4981603;28;20020;-94
2022/10/18 12:51:03;;;;;;;7.47;2.97;;;24.30;58.60;;;;;;4981536;28;20066;-94
2022/10/18 12:53:30;;;;;;;6.93;2.70;;;24.20;58.20;;;;;;4981454;28;20094;-95
2022/10/18 12:56:28;;;;;;;9.68;3.15;;;23.90;58.20;;;;;;4964056;28;20019;-90
2022/10/18 12:59:25;;;;;;;11.45;2.58;;;23.60;58.80;;;;;;4981536;28;20091;-92
2022/10/18 13:01:50;;;;;;;8.73;2.50;;;23.50;59.20;;;;;;4944558;28;20022;-92
2022/10/18 13:04:31;;;;;;;10.40;2.38;;;23.70;59.00;;;;;;4964349;28;20023;-93
2022/10/18 13:07:01;;;;;;;;;;;23.60;58.20;;;;;;4980005;28;20039;-91
2022/10/18 13:09:34;;;;;;;;;;;23.60;58.20;;;;;;4960696;28;19941;-92
2022/10/18 13:12:08;;;;;;;6.40;1.55;;;23.70;58.20;;;;;;4964518;28;19902;-92
2022/10/18 13:14:46;;;;;;;4.90;1.50;;;23.90;57.40;;;;;;4964093;28;20035;-92
2022/10/18 13:17:18;;;;;;;7.93;1.83;;;24.10;56.10;;;;;;4955466;29;20024;-90
2022/10/18 13:20:13;;;;;;;6.70;1.70;;;24.30;55.60;;;;;;4999232;28;20019;-92
2022/10/18 13:22:51;;;;;;;7.15;2.15;;;24.50;54.70;;;;;;4984353;28;20023;-90